Letts, Iowa
Current Conditions -  °F | °C
As of 10:15 PM on Friday 24 Oct 2014 (Local Time) from KMUT Reporting Station
Moderate Fog Moderate Fog  
Wind Chill: 54°   Ceiling: Unl
Heat Index: 54°   Visibility: 0mi
Dew Point: 52°   Wind: 3mph
Humidity: 94%   Direction: 260°W
Pressure: 29.96"   Gusts: NA
Location:  41.33°N, 91.24°W
Report Text: KMUT 250315Z AUTO 26003KT M1/4SM FG VV000 12/11 A2996 RMK AO2
Loading
Personal Weather Stations






























Interactive Weather Map
Tropical Storm Tracking
New forecast layout! Learn more

10-Day Weather Forecast

Advertisements
Track Severe Weather on mobile